Time;durP1;ratioP1;P1;durP2;ratioP2;P2;SDS_P1;SDS_P2;PMS_P1;PMS_P2;Temp;Humidity;BMP_temperature;BMP_pressure;BME280_temperature;BME280_humidity;BME280_pressure;Samples;Min_cycle;Max_cycle;Signal;HPM_P1;HPM_P2
2021/07/26 00:00:57;;;;;;;30.23;27.53;;;;;;;18.68;100.00;98663.63;2089380;28;20227;-77
2021/07/26 00:01:59;;;;;;;31.13;28.23;;;;;;;18.70;100.00;98666.78;2089268;28;20492;-76
2021/07/26 00:02:59;;;;;;;32.30;29.17;;;;;;;18.68;100.00;98674.44;2088873;28;20585;-76
2021/07/26 00:04:01;;;;;;;33.40;29.97;;;;;;;18.57;100.00;98675.00;2088514;28;20472;-76
2021/07/26 00:05:02;;;;;;;34.20;30.93;;;;;;;18.51;100.00;98686.47;2088374;28;20794;-76
2021/07/26 00:06:03;;;;;;;34.27;30.97;;;;;;;18.36;100.00;98693.50;2088690;28;20803;-76
2021/07/26 00:07:04;;;;;;;41.30;37.40;;;;;;;18.30;100.00;98703.03;2089316;28;20239;-77
2021/07/26 00:08:06;;;;;;;40.97;37.13;;;;;;;18.17;100.00;98701.63;2091220;28;20449;-76
2021/07/26 00:09:07;;;;;;;42.07;38.20;;;;;;;18.05;100.00;98692.50;2090143;28;20587;-76
2021/07/26 00:10:09;;;;;;;39.97;36.20;;;;;;;18.00;100.00;98706.28;2090303;28;20523;-77
2021/07/26 00:11:12;;;;;;;40.63;36.93;;;;;;;17.91;100.00;98708.41;2089628;28;20218;-77
2021/07/26 00:12:13;;;;;;;40.17;36.57;;;;;;;17.88;100.00;98709.09;2090186;28;20450;-76
2021/07/26 00:13:14;;;;;;;42.13;37.73;;;;;;;17.89;100.00;98709.88;2091750;28;20446;-76
2021/07/26 00:14:15;;;;;;;42.60;38.60;;;;;;;17.85;100.00;98719.84;2090538;28;20921;-76
2021/07/26 00:15:16;;;;;;;41.73;37.67;;;;;;;17.80;100.00;98723.56;2089939;28;20276;-76
2021/07/26 00:16:18;;;;;;;41.57;37.47;;;;;;;17.72;100.00;98719.97;2090050;28;20457;-76
2021/07/26 00:17:18;;;;;;;41.60;37.67;;;;;;;17.70;100.00;98718.72;2089979;28;20278;-76
2021/07/26 00:18:20;;;;;;;41.90;37.73;;;;;;;17.69;100.00;98706.34;2089970;28;20480;-76
2021/07/26 00:19:20;;;;;;;41.10;37.03;;;;;;;17.65;100.00;98705.50;2089506;28;20310;-76
2021/07/26 00:20:22;;;;;;;43.27;38.83;;;;;;;17.60;100.00;98703.06;2091509;28;20457;-76
2021/07/26 00:21:23;;;;;;;41.50;37.70;;;;;;;17.60;100.00;98694.97;2091946;28;20249;-76
2021/07/26 00:22:24;;;;;;;40.87;36.90;;;;;;;17.61;100.00;98689.22;2092147;28;20453;-76
2021/07/26 00:23:25;;;;;;;43.20;39.00;;;;;;;17.60;100.00;98697.66;2091339;28;20294;-76
2021/07/26 00:24:27;;;;;;;42.47;38.37;;;;;;;17.56;100.00;98680.63;2092683;28;20457;-76
2021/07/26 00:25:27;;;;;;;40.40;36.43;;;;;;;17.50;100.00;98680.88;2092275;28;20438;-76
2021/07/26 00:26:30;;;;;;;43.30;39.13;;;;;;;17.50;100.00;98678.19;2091542;28;20881;-76
2021/07/26 00:27:31;;;;;;;44.93;40.33;;;;;;;17.44;100.00;98681.50;2090991;28;20234;-76
2021/07/26 00:28:32;;;;;;;42.27;37.87;;;;;;;17.43;100.00;98674.53;2090705;28;20968;-76
2021/07/26 00:29:33;;;;;;;43.30;38.73;;;;;;;17.43;100.00;98680.72;2091199;28;20293;-76
2021/07/26 00:30:35;;;;;;;42.20;37.67;;;;;;;17.42;100.00;98671.06;2090771;28;20441;-76
2021/07/26 00:31:35;;;;;;;46.73;37.60;;;;;;;17.37;100.00;98671.31;2082753;28;20238;-76
2021/07/26 00:32:37;;;;;;;42.43;38.33;;;;;;;17.37;100.00;98668.63;2090940;28;20461;-76
2021/07/26 00:34:15;;;;;;;43.07;39.00;;;;;;;17.35;100.00;98660.09;2090967;28;20274;-76
2021/07/26 00:35:17;;;;;;;47.30;40.47;;;;;;;17.32;100.00;98654.63;2091200;28;20809;-75
2021/07/26 00:36:17;;;;;;;44.43;40.07;;;;;;;17.29;100.00;98658.00;2091902;28;20449;-76
2021/07/26 00:37:19;;;;;;;44.87;40.40;;;;;;;17.28;100.00;98659.94;2091282;28;20461;-75
2021/07/26 00:38:20;;;;;;;45.77;40.87;;;;;;;17.32;100.00;98663.50;2091253;28;20222;-76
2021/07/26 00:39:23;;;;;;;47.60;42.00;;;;;;;17.29;100.00;98680.41;2090045;28;20457;-76
2021/07/26 00:40:24;;;;;;;46.30;41.80;;;;;;;17.32;100.00;98682.38;2090262;28;20779;-76
2021/07/26 00:41:26;;;;;;;48.60;43.77;;;;;;;17.36;100.00;98683.25;2091129;28;20825;-75
2021/07/26 00:42:29;;;;;;;46.20;41.90;;;;;;;17.35;100.00;98686.28;2090077;28;20812;-74
2021/07/26 00:43:29;;;;;;;45.20;40.67;;;;;;;17.31;100.00;98680.03;2088501;28;20974;-74
2021/07/26 00:44:32;;;;;;;45.60;41.10;;;;;;;17.33;100.00;98686.66;2088346;28;20881;-74
2021/07/26 00:45:33;;;;;;;46.93;42.53;;;;;;;17.31;100.00;98691.63;2089164;28;20610;-74
2021/07/26 00:46:35;;;;;;;43.70;39.17;;;;;;;17.28;100.00;98686.91;2088950;28;20450;-75
2021/07/26 00:47:36;;;;;;;44.87;40.10;;;;;;;17.29;100.00;98683.09;2089027;28;20218;-74
2021/07/26 00:48:37;;;;;;;46.57;41.83;;;;;;;17.31;100.00;98678.13;2089019;28;20453;-74
2021/07/26 00:49:39;;;;;;;43.70;39.33;;;;;;;17.33;100.00;98683.94;2092426;28;20253;-75
2021/07/26 00:50:39;;;;;;;41.73;37.40;;;;;;;17.30;100.00;98676.56;2095328;28;20465;-75
2021/07/26 00:51:42;;;;;;;43.37;38.93;;;;;;;17.31;100.00;98674.66;2094541;28;20515;-76
2021/07/26 00:52:43;;;;;;;45.50;40.87;;;;;;;17.29;100.00;98669.63;2087348;28;20234;-76
2021/07/26 00:53:44;;;;;;;43.90;39.43;;;;;;;17.31;100.00;98670.03;2096206;28;20461;-76
2021/07/26 00:54:47;;;;;;;43.70;39.57;;;;;;;17.27;100.00;98676.47;2094125;28;20801;-76
2021/07/26 00:55:47;;;;;;;44.43;39.73;;;;;;;17.25;100.00;98687.59;2096656;28;20271;-76
2021/07/26 00:56:50;;;;;;;44.83;40.43;;;;;;;17.30;100.00;98700.06;2095043;28;20460;-76
2021/07/26 00:57:52;;;;;;;45.20;40.63;;;;;;;17.26;100.00;98697.25;2095858;28;20215;-76
2021/07/26 00:58:54;;;;;;;45.20;40.40;;;;;;;17.21;100.00;98705.63;2095233;28;20493;-76
2021/07/26 00:59:58;;;;;;;44.00;39.60;;;;;;;17.20;100.00;98717.50;2094878;28;20461;-76
2021/07/26 01:01:02;;;;;;;45.90;41.43;;;;;;;17.21;100.00;98724.50;2096320;28;20437;-76
2021/07/26 01:02:04;;;;;;;46.10;41.37;;;;;;;17.20;100.00;98733.69;2094879;28;20468;-76
2021/07/26 01:03:04;;;;;;;44.63;40.23;;;;;;;17.18;100.00;98733.25;2095414;28;20449;-76
2021/07/26 01:04:06;;;;;;;43.87;39.23;;;;;;;17.19;100.00;98732.13;2095513;28;20442;-76
2021/07/26 01:05:08;;;;;;;45.03;40.43;;;;;;;17.18;100.00;98730.56;2094454;28;20234;-76
2021/07/26 01:06:10;;;;;;;48.67;41.30;;;;;;;17.15;100.00;98739.34;2096426;28;20468;-76
2021/07/26 01:07:11;;;;;;;47.40;42.57;;;;;;;17.22;100.00;98744.94;2094616;28;20453;-76
2021/07/26 01:08:12;;;;;;;47.27;42.30;;;;;;;17.27;100.00;98749.28;2094596;28;20453;-76
2021/07/26 01:09:14;;;;;;;47.20;42.20;;;;;;;17.40;100.00;98738.06;2095703;28;20229;-76
2021/07/26 01:10:15;;;;;;;51.30;45.60;;;;;;;17.42;100.00;98743.88;2086037;28;20447;-76
2021/07/26 01:11:17;;;;;;;49.83;44.73;;;;;;;17.37;100.00;98738.75;2095049;28;20532;-76
2021/07/26 01:12:17;;;;;;;50.17;45.00;;;;;;;17.34;100.00;98731.34;2095171;28;20195;-76
2021/07/26 01:13:24;;;;;;;54.00;48.50;;;;;;;17.36;100.00;98731.00;2095617;28;20443;-76
2021/07/26 01:14:25;;;;;;;52.10;46.57;;;;;;;17.32;100.00;98725.53;2095056;28;20226;-75
2021/07/26 01:15:27;;;;;;;55.10;49.37;;;;;;;17.34;100.00;98723.25;2094474;28;20457;-76
2021/07/26 01:16:27;;;;;;;51.30;45.80;;;;;;;17.31;100.00;98721.28;2096630;28;20299;-76
2021/07/26 01:17:53;;;;;;;54.67;46.57;;;;;;;17.36;100.00;98715.59;2096062;28;20442;-76
2021/07/26 01:18:56;;;;;;;52.63;46.30;;;;;;;17.34;100.00;98715.16;2069464;28;20226;-76
2021/07/26 01:19:56;;;;;;;61.10;47.23;;;;;;;17.35;100.00;98718.66;2086623;28;20478;-76
2021/07/26 01:21:01;;;;;;;51.87;46.43;;;;;;;17.34;100.00;98712.47;2093241;28;20441;-76
2021/07/26 01:22:03;;;;;;;54.43;48.43;;;;;;;17.38;100.00;98702.56;2094468;28;20242;-76
2021/07/26 01:23:03;;;;;;;53.80;48.30;;;;;;;17.35;100.00;98708.66;2093030;28;20486;-76
2021/07/26 01:24:06;;;;;;;52.53;46.70;;;;;;;17.37;100.00;98695.59;2095806;28;20444;-76
2021/07/26 01:25:07;;;;;;;53.57;47.77;;;;;;;17.34;100.00;98690.91;2095369;28;20298;-76
2021/07/26 01:26:11;;;;;;;52.93;46.70;;;;;;;17.35;100.00;98681.69;2096022;28;20476;-76
2021/07/26 01:27:12;;;;;;;52.50;46.80;;;;;;;17.36;100.00;98675.16;2096582;28;20450;-76
2021/07/26 01:28:15;;;;;;;53.93;48.23;;;;;;;17.41;100.00;98674.13;2095205;28;20527;-76
2021/07/26 01:29:17;;;;;;;52.87;47.20;;;;;;;17.44;100.00;98659.91;2095087;28;20349;-76
2021/07/26 01:30:17;;;;;;;53.53;47.73;;;;;;;17.42;100.00;98641.38;2088103;28;20482;-76
2021/07/26 01:31:19;;;;;;;55.27;49.27;;;;;;;17.46;100.00;98636.88;2094585;28;20453;-76
2021/07/26 01:32:20;;;;;;;53.33;47.20;;;;;;;17.48;100.00;98623.81;2096535;28;20219;-76
2021/07/26 01:33:22;;;;;;;54.30;48.63;;;;;;;17.49;100.00;98617.28;2095104;28;20455;-76
2021/07/26 01:34:23;;;;;;;50.63;45.17;;;;;;;17.53;100.00;98615.44;2094851;28;20217;-76
2021/07/26 01:35:24;;;;;;;54.53;48.93;;;;;;;17.57;100.00;98607.44;2096619;28;20457;-76
2021/07/26 01:36:27;;;;;;;49.60;44.40;;;;;;;17.58;100.00;98602.81;2094333;28;20461;-75
2021/07/26 01:37:28;;;;;;;52.10;46.97;;;;;;;17.56;100.00;98599.69;2096584;28;20219;-76
2021/07/26 01:38:30;;;;;;;49.57;44.20;;;;;;;17.55;100.00;98598.09;2094447;28;20485;-76
2021/07/26 01:39:30;;;;;;;52.63;46.90;;;;;;;17.53;100.00;98585.75;2094335;28;20227;-76
2021/07/26 01:40:34;;;;;;;49.80;44.33;;;;;;;17.61;100.00;98588.59;2096643;28;20445;-76
2021/07/26 01:41:36;;;;;;;49.83;44.90;;;;;;;17.60;100.00;98568.16;2094736;28;20363;-76
2021/07/26 01:42:40;;;;;;;48.23;43.63;;;;;;;17.62;100.00;98563.19;2095673;28;20544;-75
2021/07/26 01:43:50;;;;;;;48.20;43.27;;;;;;;17.60;100.00;98544.66;2094195;28;20952;-76
2021/07/26 01:44:56;;;;;;;49.63;44.97;;;;;;;17.59;100.00;98534.22;2094019;28;20453;-76
2021/07/26 01:46:04;;;;;;;48.17;43.37;;;;;;;17.56;100.00;98529.56;2093850;28;20453;-76
2021/07/26 01:47:06;;;;;;;49.50;44.70;;;;;;;17.52;100.00;98524.84;2093621;28;20445;-87
2021/07/26 01:48:12;;;;;;;46.20;41.60;;;;;;;17.53;100.00;98520.25;2095237;28;20442;-76
2021/07/26 01:49:24;;;;;;;48.27;43.30;;;;;;;17.55;100.00;98517.19;2094447;28;20533;-76
2021/07/26 01:50:28;;;;;;;47.20;42.80;;;;;;;17.60;100.00;98508.81;2095678;28;20461;-76
2021/07/26 01:51:38;;;;;;;48.17;43.30;;;;;;;17.70;100.00;98513.66;2095887;28;20438;-76
2021/07/26 01:52:39;;;;;;;47.43;42.67;;;;;;;17.71;100.00;98518.69;2096438;28;20473;-76
2021/07/26 01:53:42;;;;;;;46.83;42.33;;;;;;;17.72;100.00;98517.59;2098294;28;20471;-76
2021/07/26 01:54:44;;;;;;;44.33;40.10;;;;;;;17.69;100.00;98512.84;2095854;28;20491;-76
2021/07/26 01:55:44;;;;;;;44.60;40.07;;;;;;;17.71;100.00;98516.00;2098519;28;20453;-76
2021/07/26 01:56:46;;;;;;;45.83;40.90;;;;;;;17.68;100.00;98524.00;2095778;28;20485;-76
2021/07/26 01:57:47;;;;;;;43.97;39.87;;;;;;;17.62;100.00;98518.09;2088397;28;20247;-76
2021/07/26 01:58:48;;;;;;;43.13;38.77;;;;;;;17.59;100.00;98512.66;2097497;28;20453;-75
2021/07/26 01:59:49;;;;;;;43.37;39.20;;;;;;;17.53;100.00;98510.22;2096157;28;20218;-76
2021/07/26 02:00:50;;;;;;;43.30;39.10;;;;;;;17.55;100.00;98504.50;2098400;28;20449;-76
2021/07/26 02:01:51;;;;;;;43.93;39.30;;;;;;;17.49;100.00;98509.38;2095992;28;20302;-76
2021/07/26 02:02:53;;;;;;;44.53;40.27;;;;;;;17.47;100.00;98516.28;2095320;28;20465;-76
2021/07/26 02:03:55;;;;;;;44.77;40.17;;;;;;;17.45;100.00;98519.31;2088611;28;20280;-76
2021/07/26 02:04:58;;;;;;;44.50;40.27;;;;;;;17.43;100.00;98524.28;2087774;28;20445;-76
2021/07/26 02:05:58;;;;;;;44.67;40.33;;;;;;;17.42;100.00;98530.03;2096630;28;20426;-76
2021/07/26 02:07:01;;;;;;;43.33;39.20;;;;;;;17.42;100.00;98525.41;2087415;28;20459;-76
2021/07/26 02:08:02;;;;;;;44.07;40.17;;;;;;;17.42;100.00;98536.22;2086756;28;20290;-76
2021/07/26 02:09:04;;;;;;;42.90;38.90;;;;;;;17.42;100.00;98530.03;2095925;28;20444;-76
2021/07/26 02:10:05;;;;;;;44.67;40.33;;;;;;;17.45;100.00;98519.31;2094962;28;20281;-76
2021/07/26 02:11:07;;;;;;;44.57;39.23;;;;;;;17.51;100.00;98527.91;2096730;28;20459;-76
2021/07/26 02:12:08;;;;;;;43.87;39.60;;;;;;;17.57;100.00;98523.81;2096094;28;20453;-76
2021/07/26 02:13:09;;;;;;;43.13;38.97;;;;;;;17.54;100.00;98532.59;2095994;28;20505;-76
2021/07/26 02:14:10;;;;;;;42.57;38.37;;;;;;;17.48;100.00;98521.31;2097771;28;20456;-76
2021/07/26 02:15:12;;;;;;;44.27;40.27;;;;;;;17.47;100.00;98522.44;2095871;28;20465;-76
2021/07/26 02:16:13;;;;;;;42.80;38.93;;;;;;;17.46;100.00;98515.50;2097064;28;20229;-76
2021/07/26 02:17:16;;;;;;;42.07;38.47;;;;;;;17.44;100.00;98523.16;2097362;28;20537;-76
2021/07/26 02:18:17;;;;;;;41.37;37.67;;;;;;;17.42;100.00;98524.66;2096213;28;20226;-76
2021/07/26 02:19:18;;;;;;;42.33;38.03;;;;;;;17.40;100.00;98533.09;2097502;28;20456;-76
2021/07/26 02:20:20;;;;;;;40.27;36.57;;;;;;;17.42;100.00;98530.81;2087475;28;20215;-76
2021/07/26 02:21:22;;;;;;;39.80;36.10;;;;;;;17.40;100.00;98533.09;2096589;28;20456;-76
2021/07/26 02:22:24;;;;;;;41.80;37.87;;;;;;;17.39;100.00;98541.53;2096737;28;20560;-75
2021/07/26 02:23:25;;;;;;;40.13;36.23;;;;;;;17.43;100.00;98553.94;2096032;28;20871;-75
2021/07/26 02:24:26;;;;;;;41.43;37.43;;;;;;;17.43;100.00;98553.16;2097429;28;20464;-76
2021/07/26 02:25:27;;;;;;;41.73;37.93;;;;;;;17.40;100.00;98546.56;2096159;28;20455;-76
2021/07/26 02:26:28;;;;;;;43.47;39.57;;;;;;;17.41;100.00;98544.66;2096157;28;20253;-76
2021/07/26 02:27:30;;;;;;;44.10;40.00;;;;;;;17.37;100.00;98544.56;2097540;28;20461;-76
2021/07/26 02:28:30;;;;;;;43.63;39.20;;;;;;;17.38;100.00;98538.06;2095515;28;20225;-76
2021/07/26 02:29:32;;;;;;;45.53;40.70;;;;;;;17.37;100.00;98547.25;2087415;28;20446;-76
2021/07/26 02:30:32;;;;;;;43.37;38.77;;;;;;;17.36;100.00;98548.41;2095264;28;20223;-76
2021/07/26 02:31:34;;;;;;;44.37;40.27;;;;;;;17.36;100.00;98548.41;2096027;28;20477;-75
2021/07/26 02:32:35;;;;;;;45.77;40.77;;;;;;;17.35;100.00;98544.16;2097639;28;20222;-76
2021/07/26 02:33:36;;;;;;;42.10;38.00;;;;;;;17.40;100.00;98551.97;2095711;28;20446;-76
2021/07/26 02:34:37;;;;;;;44.50;39.53;;;;;;;17.37;100.00;98549.97;2096351;28;20227;-77
2021/07/26 02:35:38;;;;;;;45.60;41.13;;;;;;;17.37;100.00;98559.97;2095236;28;20453;-76
2021/07/26 02:36:39;;;;;;;43.40;39.20;;;;;;;17.35;100.00;98546.84;2095094;28;20234;-76
2021/07/26 02:37:42;;;;;;;44.17;40.00;;;;;;;17.34;100.00;98556.06;2096104;28;20472;-75
2021/07/26 02:38:42;;;;;;;43.30;39.30;;;;;;;17.35;100.00;98564.94;2087115;28;20223;-76
2021/07/26 02:39:44;;;;;;;42.20;37.90;;;;;;;17.35;100.00;98564.94;2095216;28;20441;-76
2021/07/26 02:40:45;;;;;;;40.10;36.00;;;;;;;17.33;100.00;98572.59;2095707;28;20691;-75
2021/07/26 02:41:46;;;;;;;41.50;37.60;;;;;;;17.33;100.00;98570.69;2087055;28;20474;-76
2021/07/26 02:42:47;;;;;;;41.13;37.03;;;;;;;17.35;100.00;98571.13;2088053;28;20219;-76
2021/07/26 02:43:48;;;;;;;43.70;39.23;;;;;;;17.33;100.00;98576.09;2087361;28;21010;-76
2021/07/26 02:44:49;;;;;;;40.57;36.77;;;;;;;17.33;100.00;98575.31;2096214;28;20309;-76
2021/07/26 02:45:51;;;;;;;38.23;34.63;;;;;;;17.33;100.00;98576.09;2096324;28;20461;-76
2021/07/26 02:46:51;;;;;;;39.87;35.87;;;;;;;17.31;100.00;98575.66;2088476;28;20223;-75
2021/07/26 02:47:53;;;;;;;40.30;36.43;;;;;;;17.33;100.00;98586.09;2095960;28;20536;-76
2021/07/26 02:48:53;;;;;;;40.47;36.27;;;;;;;17.32;100.00;98585.31;2096665;28;20239;-76
2021/07/26 02:49:55;;;;;;;40.10;36.17;;;;;;;17.28;100.00;98587.13;2095708;28;20461;-76
2021/07/26 02:50:56;;;;;;;38.00;34.40;;;;;;;17.28;100.00;98587.13;2096454;28;20242;-76
2021/07/26 02:51:57;;;;;;;39.80;36.03;;;;;;;17.28;100.00;98597.13;2096686;28;20458;-76
2021/07/26 02:53:00;;;;;;;39.80;35.87;;;;;;;17.27;100.00;98590.97;2095622;28;20552;-76
2021/07/26 02:54:01;;;;;;;40.40;36.67;;;;;;;17.27;100.00;98598.28;2094300;28;20540;-76
2021/07/26 02:55:03;;;;;;;39.87;36.17;;;;;;;17.35;100.00;98600.78;2093302;28;20461;-75
2021/07/26 02:56:07;;;;;;;38.77;35.17;;;;;;;17.34;100.00;98604.59;2085937;28;20442;-75
2021/07/26 02:57:07;;;;;;;39.27;35.23;;;;;;;17.39;100.00;98596.25;2085860;28;20488;-76
2021/07/26 02:58:09;;;;;;;38.63;34.93;;;;;;;17.36;100.00;98596.94;2094167;28;20453;-75
2021/07/26 02:59:10;;;;;;;40.40;36.47;;;;;;;17.35;100.00;98595.38;2095125;28;20673;-76
2021/07/26 03:00:12;;;;;;;37.87;34.40;;;;;;;17.33;100.00;98597.66;2094122;28;20812;-75
2021/07/26 03:01:13;;;;;;;39.83;36.03;;;;;;;17.33;100.00;98599.56;2086878;28;20283;-75
2021/07/26 03:02:14;;;;;;;38.90;34.93;;;;;;;17.30;100.00;98609.16;2094453;28;20456;-75
2021/07/26 03:03:15;;;;;;;39.30;35.47;;;;;;;17.39;100.00;98601.66;2094885;28;20234;-76
2021/07/26 03:04:16;;;;;;;38.67;35.07;;;;;;;17.39;100.00;98601.66;2094447;28;20441;-75
2021/07/26 03:05:17;;;;;;;38.87;35.23;;;;;;;17.35;100.00;98600.78;2095065;28;20357;-75
2021/07/26 03:06:20;;;;;;;39.53;35.53;;;;;;;17.36;100.00;98604.25;2095030;28;20531;-76
2021/07/26 03:07:20;;;;;;;38.50;34.87;;;;;;;17.33;100.00;98605.75;2093652;28;20253;-75
2021/07/26 03:08:23;;;;;;;36.83;33.53;;;;;;;17.35;100.00;98603.47;2094258;28;20469;-76
2021/07/26 03:09:24;;;;;;;36.87;33.10;;;;;;;17.41;100.00;98612.88;2094234;28;20242;-76
2021/07/26 03:10:26;;;;;;;39.30;35.13;;;;;;;17.40;100.00;98614.00;2095245;28;20472;-76
2021/07/26 03:11:26;;;;;;;37.77;33.97;;;;;;;17.38;100.00;98612.78;2094636;28;20343;-76
2021/07/26 03:12:28;;;;;;;38.10;34.47;;;;;;;17.35;100.00;98619.66;2094739;28;20449;-75
2021/07/26 03:13:29;;;;;;;35.03;31.40;;;;;;;17.34;100.00;98620.78;2085484;28;20389;-76
2021/07/26 03:14:30;;;;;;;35.83;32.33;;;;;;;17.35;100.00;98618.88;2094205;28;20457;-75
2021/07/26 03:15:31;;;;;;;34.40;31.20;;;;;;;17.55;100.00;98617.78;2095067;28;20234;-76
2021/07/26 03:16:32;;;;;;;33.70;30.27;;;;;;;17.60;100.00;98614.81;2094013;28;20448;-75
2021/07/26 03:17:33;;;;;;;34.40;30.87;;;;;;;17.63;100.00;98616.00;2093924;28;20254;-76
2021/07/26 03:18:35;;;;;;;33.97;30.90;;;;;;;17.64;100.00;98623.00;2085549;28;20466;-75
2021/07/26 03:19:35;;;;;;;34.87;31.50;;;;;;;17.58;100.00;98619.00;2093378;28;20238;-75
2021/07/26 03:20:37;;;;;;;34.43;31.13;;;;;;;17.51;100.00;98606.91;2086172;28;20453;-76
2021/07/26 03:21:38;;;;;;;35.53;32.00;;;;;;;17.46;100.00;98601.81;2092754;28;20245;-76
2021/07/26 03:22:53;;;;;;;34.10;31.00;;;;;;;17.43;100.00;98607.88;2094129;28;20529;-76
2021/07/26 03:23:56;;;;;;;35.87;32.17;;;;;;;17.40;100.00;98614.00;2094088;28;20484;-76
2021/07/26 03:24:57;;;;;;;35.20;31.50;;;;;;;17.38;100.00;98599.31;2094212;28;20453;-75
2021/07/26 03:25:59;;;;;;;33.63;30.47;;;;;;;17.45;100.00;98592.13;2096787;28;20497;-75
2021/07/26 03:26:59;;;;;;;33.83;30.30;;;;;;;17.49;100.00;98594.91;2093996;28;20215;-75
2021/07/26 03:28:01;;;;;;;33.97;30.90;;;;;;;17.51;100.00;98593.44;2094749;28;20471;-76
2021/07/26 03:29:02;;;;;;;34.63;31.43;;;;;;;17.55;100.00;98595.41;2094578;28;20218;-76
2021/07/26 03:30:04;;;;;;;33.63;30.33;;;;;;;17.55;100.00;98587.31;2094614;28;20764;-76
2021/07/26 03:31:06;;;;;;;34.07;30.83;;;;;;;17.56;100.00;98588.91;2095720;28;20313;-76
2021/07/26 03:32:08;;;;;;;33.83;30.43;;;;;;;17.51;100.00;98585.34;2093851;28;20776;-76
2021/07/26 03:33:09;;;;;;;32.87;29.57;;;;;;;17.46;100.00;98580.22;2094565;28;20509;-75
2021/07/26 03:34:10;;;;;;;34.17;30.90;;;;;;;17.41;100.00;98582.41;2094869;28;20453;-76
2021/07/26 03:35:12;;;;;;;33.77;30.57;;;;;;;17.39;100.00;98582.00;2093739;28;20449;-76
2021/07/26 03:36:14;;;;;;;33.97;30.70;;;;;;;17.36;100.00;98585.38;2086984;28;20219;-75
2021/07/26 03:37:15;;;;;;;34.93;30.70;;;;;;;17.32;100.00;98589.91;2085533;28;20510;-76
2021/07/26 03:38:20;;;;;;;33.67;30.50;;;;;;;17.29;100.00;98593.31;2093678;28;20445;-75
2021/07/26 03:39:22;;;;;;;33.80;30.60;;;;;;;17.28;100.00;98595.22;2093713;28;20238;-76
2021/07/26 03:40:23;;;;;;;32.53;29.47;;;;;;;17.27;100.00;98598.28;2091363;28;20464;-76
2021/07/26 03:41:24;;;;;;;33.77;30.43;;;;;;;17.26;100.00;98594.00;2085005;28;21012;-75
2021/07/26 03:42:25;;;;;;;35.07;31.67;;;;;;;17.24;100.00;98592.47;2092912;28;20468;-76
2021/07/26 03:43:27;;;;;;;35.60;32.07;;;;;;;17.24;100.00;98594.38;2093670;28;20704;-76
2021/07/26 03:44:28;;;;;;;35.13;31.70;;;;;;;17.24;100.00;98599.75;2094430;28;20429;-76
2021/07/26 03:45:29;;;;;;;35.17;31.77;;;;;;;17.25;100.00;98601.31;2092676;28;20468;-76
2021/07/26 03:46:31;;;;;;;35.80;32.23;;;;;;;17.22;100.00;98591.25;2085194;28;20473;-76
2021/07/26 03:47:32;;;;;;;35.57;31.87;;;;;;;17.28;100.00;98594.44;2092421;28;20242;-76
2021/07/26 03:48:33;;;;;;;35.07;31.53;;;;;;;17.38;100.00;98596.63;2092498;28;20453;-75
2021/07/26 03:49:34;;;;;;;35.73;32.17;;;;;;;17.42;100.00;98597.47;2085255;28;20668;-76
2021/07/26 03:50:35;;;;;;;35.10;31.57;;;;;;;17.37;100.00;98593.09;2092636;28;20482;-76
2021/07/26 03:51:36;;;;;;;35.87;32.17;;;;;;;17.38;100.00;98586.59;2093740;28;20587;-75
2021/07/26 03:52:44;;;;;;;36.30;32.60;;;;;;;17.36;100.00;98586.16;2092719;28;20465;-75
2021/07/26 03:53:47;;;;;;;36.23;32.43;;;;;;;17.42;100.00;98590.16;2085190;28;20318;-75
2021/07/26 03:54:50;;;;;;;34.27;31.10;;;;;;;17.45;100.00;98600.22;2093509;28;20509;-75
2021/07/26 03:55:52;;;;;;;35.97;32.23;;;;;;;17.41;100.00;98604.78;2093194;28;20437;-75
2021/07/26 03:56:55;;;;;;;34.73;31.53;;;;;;;17.46;100.00;98595.59;2092376;28;20453;-75
2021/07/26 03:57:58;;;;;;;33.10;30.20;;;;;;;17.41;100.00;98604.00;2085448;28;20462;-75
2021/07/26 03:58:59;;;;;;;34.13;30.57;;;;;;;17.39;100.00;98604.34;2084224;28;20447;-76
2021/07/26 04:00:01;;;;;;;34.50;31.00;;;;;;;17.35;100.00;98605.38;2093577;28;20476;-76
2021/07/26 04:01:02;;;;;;;34.30;30.80;;;;;;;17.33;100.00;98613.06;2084610;28;20230;-75
2021/07/26 04:02:03;;;;;;;35.63;32.03;;;;;;;17.32;100.00;98606.88;2085537;28;20964;-76
2021/07/26 04:03:10;;;;;;;35.30;31.97;;;;;;;17.29;100.00;98602.19;2093433;28;20839;-76
2021/07/26 04:04:11;;;;;;;33.77;30.73;;;;;;;17.27;100.00;98601.75;2092333;28;20483;-75
2021/07/26 04:05:20;;;;;;;34.00;30.80;;;;;;;17.26;100.00;98600.19;2094006;28;20446;-76
2021/07/26 04:06:23;;;;;;;33.70;30.63;;;;;;;17.25;100.00;98601.31;2092941;28;20720;-75
2021/07/26 04:07:25;;;;;;;33.90;30.50;;;;;;;17.24;100.00;98594.38;2085405;28;20439;-76
2021/07/26 04:08:29;;;;;;;33.47;30.10;;;;;;;17.23;100.00;98592.81;2094659;28;20450;-75
2021/07/26 04:09:34;;;;;;;34.70;31.10;;;;;;;17.22;100.00;98591.25;2093076;28;20453;-75
2021/07/26 04:10:39;;;;;;;34.20;30.63;;;;;;;17.20;100.00;98599.69;2094094;28;20548;-75
2021/07/26 04:11:41;;;;;;;33.80;30.20;;;;;;;17.22;100.00;98602.81;2092405;28;20445;-75
2021/07/26 04:12:46;;;;;;;34.07;30.13;;;;;;;17.21;100.00;98601.25;2094472;28;21814;-76
2021/07/26 04:13:52;;;;;;;34.20;31.00;;;;;;;17.22;100.00;98602.03;2093629;28;20508;-75
2021/07/26 04:14:53;;;;;;;35.90;32.37;;;;;;;17.23;100.00;98604.38;2092076;28;20465;-76
2021/07/26 04:15:54;;;;;;;36.50;31.43;;;;;;;17.27;100.00;98599.06;2093152;28;20444;-76
2021/07/26 04:16:56;;;;;;;34.47;30.93;;;;;;;17.26;100.00;98597.50;2091858;28;20449;-75
2021/07/26 04:17:56;;;;;;;34.93;31.13;;;;;;;17.27;100.00;98598.28;2093946;28;20245;-76
2021/07/26 04:19:00;;;;;;;34.83;31.30;;;;;;;17.27;100.00;98601.75;2092608;28;20465;-76
2021/07/26 04:20:01;;;;;;;34.57;31.10;;;;;;;17.29;100.00;98596.81;2092359;28;20222;-76
2021/07/26 04:21:08;;;;;;;34.47;30.80;;;;;;;17.29;100.00;98602.19;2093510;28;20437;-75
2021/07/26 04:22:08;;;;;;;35.13;31.43;;;;;;;17.30;100.00;98595.66;2091848;28;20241;-75
2021/07/26 04:23:11;;;;;;;34.33;30.97;;;;;;;17.33;100.00;98594.97;2085957;28;20486;-75
2021/07/26 04:24:11;;;;;;;36.53;32.17;;;;;;;17.34;100.00;98603.81;2093360;28;20676;-75
2021/07/26 04:25:13;;;;;;;34.17;30.87;;;;;;;17.34;100.00;98593.81;2094215;28;20441;-75
2021/07/26 04:26:15;;;;;;;34.43;30.80;;;;;;;17.35;100.00;98600.78;2095756;28;20230;-76
2021/07/26 04:27:17;;;;;;;34.23;30.57;;;;;;;17.38;100.00;98604.69;2093973;28;20450;-75
2021/07/26 04:28:17;;;;;;;35.07;31.47;;;;;;;17.37;100.00;98603.91;2095185;28;20963;-76
2021/07/26 04:29:20;;;;;;;34.83;30.57;;;;;;;17.42;100.00;98605.56;2093558;28;20901;-76
2021/07/26 04:30:20;;;;;;;32.80;29.80;;;;;;;17.53;100.00;98607.34;2094113;28;20250;-76
2021/07/26 04:31:22;;;;;;;32.00;28.77;;;;;;;17.57;100.00;98606.66;2094925;28;20453;-76
2021/07/26 04:32:23;;;;;;;33.60;30.00;;;;;;;17.72;100.00;98603.94;2092442;28;20704;-76
2021/07/26 04:33:24;;;;;;;32.30;29.07;;;;;;;17.85;100.00;98609.19;2094530;28;20513;-75
2021/07/26 04:34:25;;;;;;;32.43;29.30;;;;;;;17.83;100.00;98609.53;2093099;28;20432;-75
2021/07/26 04:35:27;;;;;;;33.17;30.00;;;;;;;17.82;100.00;98607.97;2094280;28;20453;-76
2021/07/26 04:36:27;;;;;;;31.20;28.20;;;;;;;17.94;100.00;98609.75;2096150;28;20223;-76
2021/07/26 04:37:29;;;;;;;31.53;28.40;;;;;;;17.94;100.00;98607.03;2093064;28;20482;-75
2021/07/26 04:38:30;;;;;;;31.37;28.43;;;;;;;17.95;100.00;98609.38;2094639;28;20234;-76
2021/07/26 04:39:31;;;;;;;31.80;28.43;;;;;;;17.94;100.00;98607.81;2094254;28;20473;-76
2021/07/26 04:40:32;;;;;;;31.83;28.60;;;;;;;17.91;100.00;98608.56;2093605;28;20222;-76
2021/07/26 04:41:35;;;;;;;31.63;28.73;;;;;;;17.92;100.00;98612.81;2095344;28;20536;-76
2021/07/26 04:42:36;;;;;;;32.07;28.77;;;;;;;17.94;100.00;98618.63;2094256;28;20230;-76